Map

Track Data

SID SEASON NUMBER BASIN SUBBASIN NAME ISO_TIME NATURE LAT LON WMO_WIND WMO_PRES WMO_AGENCY TRACK_TYPE DIST2LAND LANDFALL IFLAG USA_AGENCY USA_ATCF_ID USA_LAT USA_LON USA_RECORD USA_STATUS USA_WIND USA_PRES USA_SSHS USA_R34_NE USA_R34_SE USA_R34_SW USA_R34_NW USA_R50_NE USA_R50_SE USA_R50_SW USA_R50_NW USA_R64_NE USA_R64_SE USA_R64_SW USA_R64_NW USA_POCI USA_ROCI USA_RMW USA_EYE TOKYO_LAT TOKYO_LON TOKYO_GRADE TOKYO_WIND TOKYO_PRES TOKYO_R50_DIR TOKYO_R50_LONG TOKYO_R50_SHORT TOKYO_R30_DIR TOKYO_R30_LONG TOKYO_R30_SHORT TOKYO_LAND CMA_LAT CMA_LON CMA_CAT CMA_WIND CMA_PRES HKO_LAT HKO_LON HKO_CAT HKO_WIND HKO_PRES NEWDELHI_LAT NEWDELHI_LON NEWDELHI_GRADE NEWDELHI_WIND NEWDELHI_PRES NEWDELHI_CI NEWDELHI_DP NEWDELHI_POCI REUNION_LAT REUNION_LON REUNION_TYPE REUNION_WIND REUNION_PRES REUNION_TNUM REUNION_CI REUNION_RMW REUNION_R34_NE REUNION_R34_SE REUNION_R34_SW REUNION_R34_NW REUNION_R50_NE REUNION_R50_SE REUNION_R50_SW REUNION_R50_NW REUNION_R64_NE REUNION_R64_SE REUNION_R64_SW REUNION_R64_NW BOM_LAT BOM_LON BOM_TYPE BOM_WIND BOM_PRES BOM_TNUM BOM_CI BOM_RMW BOM_R34_NE BOM_R34_SE BOM_R34_SW BOM_R34_NW BOM_R50_NE BOM_R50_SE BOM_R50_SW BOM_R50_NW BOM_R64_NE BOM_R64_SE BOM_R64_SW BOM_R64_NW BOM_ROCI BOM_POCI BOM_EYE BOM_POS_METHOD BOM_PRES_METHOD NADI_LAT NADI_LON NADI_CAT NADI_WIND NADI_PRES WELLINGTON_LAT WELLINGTON_LON WELLINGTON_WIND WELLINGTON_PRES DS824_LAT DS824_LON DS824_STAGE DS824_WIND DS824_PRES TD9636_LAT TD9636_LON TD9636_STAGE TD9636_WIND TD9636_PRES TD9635_LAT TD9635_LON TD9635_WIND TD9635_PRES TD9635_ROCI NEUMANN_LAT NEUMANN_LON NEUMANN_CLASS NEUMANN_WIND NEUMANN_PRES MLC_LAT MLC_LON MLC_CLASS MLC_WIND MLC_PRES USA_GUST BOM_GUST BOM_GUST_PER REUNION_GUST REUNION_GUST_PER USA_SEAHGT USA_SEARAD_NE USA_SEARAD_SE USA_SEARAD_SW USA_SEARAD_NW STORM_SPEED STORM_DIR
1887244N24279 1887 40 NA NA NOT_NAMED 1887-08-31 12:00:00 TS 24.0000 -81.4000 main 101 100 _____________O -1 24.0000 -81.4000 TD 30 3 86
1887244N24279 1887 40 NA NA NOT_NAMED 1887-08-31 15:00:00 TS 24.0100 -81.2400 main 101 101 _____________P -1 24.0100 -81.2400 TD 30 3 90
1887244N24279 1887 40 NA NA NOT_NAMED 1887-08-31 18:00:00 TS 24.0000 -81.1000 main 102 102 _____________O -1 24.0000 -81.1000 TD 30 2 103
1887244N24279 1887 40 NA NA NOT_NAMED 1887-08-31 21:00:00 TS 23.9575 -80.9925 main 105 94 _____________P -1 23.9575 -80.9925 TD 32 2 119
1887244N24279 1887 40 NA NA NOT_NAMED 1887-09-01 00:00:00 TS 23.9000 -80.9000 main 98 98 _____________O -1 23.9000 -80.9000 TS 35 2 122
1887244N24279 1887 40 NA NA NOT_NAMED 1887-09-01 03:00:00 TS 23.8500 -80.8000 main 89 89 _____________P -1 23.8500 -80.8000 TS 35 2 119
1887244N24279 1887 40 NA NA NOT_NAMED 1887-09-01 06:00:00 TS 23.8000 -80.7000 main 89 89 _____________O -1 23.8000 -80.7000 TS 35 2 115
1887244N24279 1887 40 NA NA NOT_NAMED 1887-09-01 09:00:00 TS 23.7500 -80.5625 main 89 78 _____________P -1 23.7500 -80.5625 TS 35 2 119
1887244N24279 1887 40 NA NA NOT_NAMED 1887-09-01 12:00:00 TS 23.7000 -80.5000 main 78 67 _____________O -1 23.7000 -80.5000 TS 35 1 201
1887244N24279 1887 40 NA NA NOT_NAMED 1887-09-01 15:00:00 TS 23.6275 -80.6126 main 67 67 _____________P -1 23.6275 -80.6126 TS 35 3 250
1887244N24279 1887 40 NA NA NOT_NAMED 1887-09-01 18:00:00 TS 23.6000 -80.8000 main 67 67 _____________O -1 23.6000 -80.8000 TS 35 3 279
1887244N24279 1887 40 NA NA NOT_NAMED 1887-09-01 21:00:00 TS 23.6775 -80.9499 main 78 73 _____________P -1 23.6775 -80.9499 TS 35 3 306
1887244N24279 1887 40 NA NA NOT_NAMED 1887-09-02 00:00:00 TS 23.8000 -81.1000 main 80 78 _____________O -1 23.8000 -81.1000 TS 35 4 308
1887244N24279 1887 40 NA NA NOT_NAMED 1887-09-02 03:00:00 TS 23.9000 -81.2575 main 89 89 _____________P -1 23.9000 -81.2575 TS 35 3 306
1887244N24279 1887 40 NA NA NOT_NAMED 1887-09-02 06:00:00 TS 24.0000 -81.4000 main 101 101 _____________O -1 24.0000 -81.4000 TS 35 3 314
1887244N24279 1887 40 NA NA NOT_NAMED 1887-09-02 09:00:00 TS 24.1074 -81.4925 main 112 108 _____________P -1 24.1074 -81.4925 TS 35 3 318
1887244N24279 1887 40 NA NA NOT_NAMED 1887-09-02 12:00:00 TS 24.2000 -81.6000 main 112 107 _____________O -1 24.2000 -81.6000 TS 35 3 300
1887244N24279 1887 40 NA NA NOT_NAMED 1887-09-02 15:00:00 TS 24.2651 -81.7925 main 113 113 _____________P -1 24.2651 -81.7925 TS 35 4 285
1887244N24279 1887 40 NA NA NOT_NAMED 1887-09-02 18:00:00 TS 24.3000 -82.0000 main 127 127 _____________O -1 24.3000 -82.0000 TS 35 4 272
1887244N24279 1887 40 NA NA NOT_NAMED 1887-09-02 21:00:00 TS 24.2775 -82.1801 main 134 134 _____________P -1 24.2775 -82.1801 TS 35 3 270
1887244N24279 1887 40 NA NA NOT_NAMED 1887-09-03 00:00:00 TS 24.3000 -82.3000 main 134 134 _____________O -1 24.3000 -82.3000 TS 35 2 326
1887244N24279 1887 40 NA NA NOT_NAMED 1887-09-03 03:00:00 TS 24.4775 -82.3225 main 135 124 _____________P -1 24.4775 -82.3225 TS 35 4 0
1887244N24279 1887 40 NA GM NOT_NAMED 1887-09-03 06:00:00 TS 24.7000 -82.3000 main 124 119 _____________O -1 24.7000 -82.3000 TS 35 4 0
1887244N24279 1887 40 NA GM NOT_NAMED 1887-09-03 09:00:00 TS 24.8575 -82.3224 main 115 112 _____________P -1 24.8575 -82.3224 TS 35 3 0
1887244N24279 1887 40 NA GM NOT_NAMED 1887-09-03 12:00:00 TS 25.0000 -82.3000 main 112 101 _____________O -1 25.0000 -82.3000 TS 35 3 24
1887244N24279 1887 40 NA GM NOT_NAMED 1887-09-03 15:00:00 TS 25.1500 -82.1800 main 92 73 _____________P -1 25.1500 -82.1800 TS 35 4 42
1887244N24279 1887 40 NA GM NOT_NAMED 1887-09-03 18:00:00 TS 25.3000 -82.0000 main 73 56 _____________O -1 25.3000 -82.0000 TS 35 5 48
1887244N24279 1887 40 NA GM NOT_NAMED 1887-09-03 21:00:00 TS 25.4500 -81.8075 main 45 32 _____________P -1 25.4500 -81.8075 TS 35 5 50
1887244N24279 1887 40 NA GM NOT_NAMED 1887-09-04 00:00:00 TS 25.6000 -81.6000 main 32 10 _____________O -1 25.6000 -81.6000 TS 35 5 51
1887244N24279 1887 40 NA GM NOT_NAMED 1887-09-04 03:00:00 TS 25.7500 -81.3976 main 10 0 _____________P -1 25.7500 -81.3976 TS 32 5 50
1887244N24279 1887 40 NA NA NOT_NAMED 1887-09-04 06:00:00 TS 25.9000 -81.2000 main 0 _____________O -1 25.9000 -81.2000 TD 30 5 49

About IBTrACS Database

This database is a web-friendly format of International Best Track Archive for Climate Stewardship (IBTrACS), a global best track data archive curated by NOAA dating back to 1842.

Updated: 2021-10-08